createdAt,value
2023-03-16T00:00:19.445Z,2.97
2023-03-16T00:02:46.664Z,4.80
2023-03-16T00:05:14.546Z,3.83
2023-03-16T00:07:44.742Z,4.35
2023-03-16T00:10:13.209Z,3.35
2023-03-16T00:12:43.603Z,3.97
2023-03-16T00:15:12.282Z,4.13
2023-03-16T00:17:41.174Z,4.45
2023-03-16T00:20:08.815Z,4.30
2023-03-16T00:22:35.849Z,3.88
2023-03-16T00:25:03.187Z,4.22
2023-03-16T00:27:30.589Z,4.10
2023-03-16T00:29:57.531Z,4.28
2023-03-16T00:32:33.519Z,3.47
2023-03-16T00:35:04.250Z,3.03
2023-03-16T00:37:34.036Z,3.00
2023-03-16T00:40:01.290Z,7.18
2023-03-16T00:42:30.670Z,3.88
2023-03-16T00:44:59.371Z,4.32
2023-03-16T00:47:30.372Z,4.30
2023-03-16T00:49:57.698Z,4.90
2023-03-16T00:52:27.288Z,4.95
2023-03-16T00:54:55.391Z,3.17
2023-03-16T00:57:25.595Z,3.55
2023-03-16T00:59:52.760Z,3.42
2023-03-16T01:02:23.400Z,4.05
2023-03-16T01:04:52.157Z,4.55
2023-03-16T01:07:19.301Z,5.22
2023-03-16T01:09:47.336Z,6.25
2023-03-16T01:12:17.116Z,4.22
2023-03-16T01:14:46.031Z,7.28
2023-03-16T01:17:14.681Z,3.88
2023-03-16T01:19:43.452Z,7.55
2023-03-16T01:22:11.881Z,4.75
2023-03-16T01:24:40.560Z,6.65
2023-03-16T01:27:08.564Z,5.88
2023-03-16T01:29:36.789Z,5.05
2023-03-16T01:32:05.846Z,5.57
2023-03-16T01:34:34.220Z,6.03
2023-03-16T01:37:01.597Z,5.88
2023-03-16T01:39:43.677Z,6.13
2023-03-16T01:42:12.120Z,6.95
2023-03-16T01:44:57.465Z,7.00
2023-03-16T01:47:30.139Z,5.47
2023-03-16T01:49:57.735Z,7.28
2023-03-16T01:52:33.648Z,6.60
2023-03-16T01:55:05.828Z,5.90
2023-03-16T01:57:38.548Z,7.05
2023-03-16T02:00:30.217Z,6.10
2023-03-16T02:03:16.477Z,6.90
2023-03-16T02:06:01.186Z,6.63
2023-03-16T02:08:32.082Z,7.97
2023-03-16T02:10:59.663Z,5.72
2023-03-16T02:13:38.251Z,5.82
2023-03-16T02:16:07.289Z,5.72
2023-03-16T02:18:35.188Z,6.82
2023-03-16T02:21:33.213Z,5.88
2023-03-16T02:24:03.862Z,5.00
2023-03-16T02:26:44.910Z,4.78
2023-03-16T02:29:42.783Z,7.20
2023-03-16T02:32:11.794Z,8.35
2023-03-16T02:34:39.274Z,9.05
2023-03-16T02:37:07.191Z,7.22
2023-03-16T02:39:34.523Z,7.78
2023-03-16T02:42:02.705Z,6.80
2023-03-16T02:44:36.773Z,5.70
2023-03-16T02:47:24.647Z,6.55
2023-03-16T02:49:51.683Z,4.20
2023-03-16T02:52:18.664Z,5.20
2023-03-16T02:54:45.720Z,6.47
2023-03-16T02:57:13.432Z,4.88
2023-03-16T02:59:41.566Z,5.78
2023-03-16T03:02:11.159Z,5.50
2023-03-16T03:04:38.255Z,6.03
2023-03-16T03:07:06.930Z,5.75
2023-03-16T03:09:48.449Z,5.20
2023-03-16T03:12:17.284Z,5.85
2023-03-16T03:14:44.345Z,5.30
2023-03-16T03:17:13.298Z,4.97
2023-03-16T03:19:40.464Z,5.65
2023-03-16T03:22:07.593Z,6.60
2023-03-16T03:24:35.070Z,5.18
2023-03-16T03:27:05.781Z,4.18
2023-03-16T03:29:34.782Z,4.30
2023-03-16T03:32:02.853Z,3.78
2023-03-16T03:34:31.475Z,5.78
2023-03-16T03:36:58.983Z,4.07
2023-03-16T03:39:29.308Z,4.53
2023-03-16T03:41:56.604Z,4.35
2023-03-16T03:44:24.950Z,4.68
2023-03-16T03:46:52.069Z,4.50
2023-03-16T03:49:19.136Z,4.13
2023-03-16T03:51:47.976Z,4.63
2023-03-16T03:54:17.999Z,3.80
2023-03-16T03:56:52.328Z,5.30
2023-03-16T03:59:20.181Z,5.97
2023-03-16T04:02:19.607Z,3.53
2023-03-16T04:04:51.012Z,4.38
2023-03-16T04:07:18.252Z,3.15
2023-03-16T04:09:49.065Z,2.75
2023-03-16T04:12:23.870Z,7.38
2023-03-16T04:14:51.738Z,3.47
2023-03-16T04:17:20.798Z,4.32
2023-03-16T04:19:50.078Z,4.65
2023-03-16T04:22:18.175Z,3.75
2023-03-16T04:24:46.803Z,3.60
2023-03-16T04:27:14.528Z,3.72
2023-03-16T04:29:41.681Z,3.65
2023-03-16T04:32:09.253Z,4.20
2023-03-16T04:34:38.516Z,5.47
2023-03-16T04:37:06.383Z,4.35
2023-03-16T04:39:42.139Z,4.93
2023-03-16T04:42:09.432Z,4.10
2023-03-16T04:44:44.104Z,3.25
2023-03-16T04:47:13.715Z,3.47
2023-03-16T04:49:41.860Z,4.18
2023-03-16T04:52:10.151Z,4.53
2023-03-16T04:54:37.509Z,3.75
2023-03-16T04:57:05.765Z,7.18
2023-03-16T04:59:47.963Z,4.32
2023-03-16T05:02:24.690Z,4.85
2023-03-16T05:04:51.697Z,6.88
2023-03-16T05:07:19.290Z,6.30
2023-03-16T05:09:50.903Z,5.45
2023-03-16T05:12:18.377Z,4.93
2023-03-16T05:14:47.343Z,4.13
2023-03-16T05:17:25.877Z,6.15
2023-03-16T05:19:53.466Z,3.55
2023-03-16T05:22:21.432Z,4.25
2023-03-16T05:25:15.560Z,5.22
2023-03-16T05:27:48.811Z,8.40
2023-03-16T05:30:22.486Z,8.05
2023-03-16T05:32:51.513Z,5.43
2023-03-16T05:35:19.702Z,4.68
2023-03-16T05:37:47.055Z,4.82
2023-03-16T05:40:19.447Z,7.38
2023-03-16T05:43:00.302Z,5.28
2023-03-16T05:45:28.683Z,5.57
2023-03-16T05:48:17.064Z,7.57
2023-03-16T05:50:50.353Z,6.32
2023-03-16T05:53:19.816Z,6.75
2023-03-16T05:55:57.131Z,6.55
2023-03-16T05:58:24.941Z,7.57
2023-03-16T06:00:52.476Z,5.22
2023-03-16T06:03:26.765Z,6.07
2023-03-16T06:05:54.824Z,6.47
2023-03-16T06:11:06.142Z,4.90
2023-03-16T06:13:33.453Z,5.25
2023-03-16T06:16:01.503Z,8.50
2023-03-16T06:18:28.844Z,7.07
2023-03-16T06:20:56.472Z,5.72
2023-03-16T06:23:24.447Z,6.15
2023-03-16T06:25:54.538Z,6.65
2023-03-16T06:28:24.228Z,6.90
2023-03-16T06:30:56.304Z,5.65
2023-03-16T06:33:26.395Z,6.28
2023-03-16T06:35:54.029Z,5.20
2023-03-16T06:38:33.623Z,4.05
2023-03-16T06:41:17.604Z,4.93
2023-03-16T06:43:46.545Z,8.85
2023-03-16T06:46:13.649Z,5.85
2023-03-16T06:48:41.965Z,8.95
2023-03-16T06:51:09.519Z,5.70
2023-03-16T06:53:37.204Z,5.18
2023-03-16T06:56:04.396Z,5.55
2023-03-16T06:58:35.729Z,7.57
2023-03-16T07:01:04.522Z,6.85
2023-03-16T07:03:32.137Z,7.43
2023-03-16T07:06:06.082Z,7.40
2023-03-16T07:08:35.724Z,11.05
2023-03-16T07:11:03.265Z,6.03
2023-03-16T07:13:30.527Z,3.95
2023-03-16T07:15:58.783Z,4.55
2023-03-16T07:18:26.652Z,3.28
2023-03-16T07:20:54.788Z,4.80
2023-03-16T07:23:25.236Z,5.20
2023-03-16T07:25:55.544Z,3.75
2023-03-16T07:28:23.274Z,3.35
2023-03-16T07:31:02.988Z,4.80
2023-03-16T07:33:36.384Z,6.38
2023-03-16T07:36:06.311Z,2.83
2023-03-16T07:38:38.652Z,3.67
2023-03-16T07:41:05.845Z,3.15
2023-03-16T07:43:34.908Z,4.85
2023-03-16T07:46:01.991Z,5.32
2023-03-16T07:48:29.782Z,4.22
2023-03-16T07:51:01.057Z,7.10
2023-03-16T07:53:29.091Z,3.80
2023-03-16T07:56:14.715Z,6.75
2023-03-16T07:58:47.452Z,5.18
2023-03-16T08:01:17.895Z,6.72
2023-03-16T08:03:44.894Z,6.25
2023-03-16T08:06:14.830Z,3.65
2023-03-16T08:08:42.934Z,4.97
2023-03-16T08:11:15.053Z,5.05
2023-03-16T08:13:53.989Z,4.22
2023-03-16T08:16:24.486Z,10.83
2023-03-16T08:18:52.040Z,6.72
2023-03-16T08:21:20.240Z,8.15
2023-03-16T08:23:51.989Z,5.15
2023-03-16T08:26:21.295Z,6.95
2023-03-16T08:28:53.147Z,4.95
2023-03-16T08:31:21.270Z,4.13
2023-03-16T08:34:04.453Z,3.95
2023-03-16T08:36:36.953Z,3.72
2023-03-16T08:39:07.566Z,3.92
2023-03-16T08:41:45.826Z,4.05
2023-03-16T08:44:25.818Z,5.47
2023-03-16T08:46:52.952Z,3.85
2023-03-16T08:49:21.232Z,4.30
2023-03-16T08:51:57.185Z,9.35
2023-03-16T08:54:24.189Z,6.82
2023-03-16T08:56:54.110Z,5.30
2023-03-16T08:59:29.889Z,6.40
2023-03-16T09:01:57.843Z,7.07
2023-03-16T09:04:26.094Z,4.30
2023-03-16T09:07:07.822Z,6.75
2023-03-16T09:09:36.118Z,3.92
2023-03-16T09:12:06.516Z,3.95
2023-03-16T09:14:33.640Z,4.50
2023-03-16T09:17:03.646Z,6.22
2023-03-16T09:19:50.062Z,8.77
2023-03-16T09:22:21.770Z,5.50
2023-03-16T09:24:49.631Z,3.85
2023-03-16T09:27:20.798Z,7.55
2023-03-16T09:29:48.911Z,8.25
2023-03-16T09:32:16.307Z,4.75
2023-03-16T09:34:43.388Z,4.72
2023-03-16T09:37:11.032Z,5.13
2023-03-16T09:39:41.109Z,4.13
2023-03-16T09:42:34.293Z,6.32
2023-03-16T09:45:23.998Z,6.00
2023-03-16T09:47:56.980Z,5.50
2023-03-16T09:50:38.165Z,3.65
2023-03-16T09:53:33.196Z,6.03
2023-03-16T09:56:08.462Z,3.72
2023-03-16T09:58:36.764Z,4.35
2023-03-16T10:01:43.771Z,5.82
2023-03-16T10:04:31.206Z,4.82
2023-03-16T10:07:18.566Z,3.83
2023-03-16T10:10:07.400Z,4.93
2023-03-16T10:12:44.991Z,3.67
2023-03-16T10:15:27.396Z,6.15
2023-03-16T10:18:16.426Z,4.63
2023-03-16T10:20:45.536Z,5.47
2023-03-16T10:23:22.991Z,3.90
2023-03-16T10:25:52.324Z,5.32
2023-03-16T10:28:29.748Z,8.23
2023-03-16T10:31:00.118Z,4.45
2023-03-16T10:33:31.063Z,7.03
2023-03-16T10:35:58.028Z,4.68
2023-03-16T10:38:27.918Z,5.80
2023-03-16T10:40:57.776Z,4.50
2023-03-16T10:43:25.200Z,4.22
2023-03-16T10:46:05.331Z,3.92
2023-03-16T10:48:38.848Z,5.15
2023-03-16T10:51:25.641Z,5.75
2023-03-16T10:54:10.990Z,4.80
2023-03-16T10:56:40.827Z,7.05
2023-03-16T10:59:50.260Z,4.78
2023-03-16T11:02:22.698Z,4.85
2023-03-16T11:04:50.483Z,6.80
2023-03-16T11:07:19.042Z,6.50
2023-03-16T11:09:47.799Z,8.05
2023-03-16T11:12:30.391Z,5.15
2023-03-16T11:15:28.540Z,6.10
2023-03-16T11:17:58.651Z,5.85
2023-03-16T11:20:34.312Z,5.20
2023-03-16T11:23:11.884Z,6.07
2023-03-16T11:25:51.093Z,4.85
2023-03-16T11:28:37.550Z,5.57
2023-03-16T11:31:27.584Z,9.18
2023-03-16T11:33:57.466Z,6.90
2023-03-16T11:36:46.157Z,7.10
2023-03-16T11:39:33.736Z,6.97
2023-03-16T11:42:16.114Z,7.03
2023-03-16T11:45:13.225Z,5.07
2023-03-16T11:47:52.027Z,5.80
2023-03-16T11:50:30.638Z,5.22
2023-03-16T11:53:20.258Z,6.50
2023-03-16T11:56:15.196Z,4.43
2023-03-16T11:59:08.015Z,6.90
2023-03-16T12:02:00.896Z,8.40
2023-03-16T12:04:49.821Z,7.55
2023-03-16T12:08:09.243Z,5.43
2023-03-16T12:10:54.483Z,5.22
2023-03-16T12:13:33.081Z,5.50
2023-03-16T12:16:24.031Z,6.43
2023-03-16T12:18:57.778Z,6.88
2023-03-16T12:21:48.597Z,5.05
2023-03-16T12:24:29.045Z,5.57
2023-03-16T12:26:57.723Z,6.35
2023-03-16T12:29:42.957Z,6.45
2023-03-16T12:32:15.271Z,4.65
2023-03-16T12:35:02.843Z,8.27
2023-03-16T12:37:51.030Z,6.38
2023-03-16T12:40:39.637Z,7.75
2023-03-16T12:43:31.494Z,5.38
2023-03-16T12:46:24.760Z,6.53
2023-03-16T12:48:57.257Z,6.43
2023-03-16T12:51:38.723Z,8.55
2023-03-16T12:54:07.581Z,5.90
2023-03-16T12:56:43.347Z,6.03
2023-03-16T12:59:21.086Z,9.13
2023-03-16T13:01:58.006Z,6.45
2023-03-16T13:04:32.413Z,6.10
2023-03-16T13:07:07.739Z,5.80
2023-03-16T13:09:42.160Z,10.35
2023-03-16T13:12:10.521Z,8.00
2023-03-16T13:14:40.797Z,8.05
2023-03-16T13:17:29.495Z,7.00
2023-03-16T13:20:03.449Z,7.82
2023-03-16T13:22:47.949Z,7.85
2023-03-16T13:25:23.384Z,10.18
2023-03-16T13:27:54.603Z,5.78
2023-03-16T13:30:29.851Z,7.07
2023-03-16T13:33:18.862Z,9.48
2023-03-16T13:35:47.627Z,8.88
2023-03-16T13:38:18.498Z,8.15
2023-03-16T13:40:47.911Z,7.05
2023-03-16T13:43:22.000Z,8.95
2023-03-16T13:45:48.965Z,8.15
2023-03-16T13:48:18.151Z,7.18
2023-03-16T13:50:51.995Z,8.88
2023-03-16T13:53:26.132Z,7.75
2023-03-16T13:55:54.676Z,7.00
2023-03-16T13:58:32.124Z,9.15
2023-03-16T14:01:05.070Z,6.93
2023-03-16T14:03:38.089Z,8.23
2023-03-16T14:06:06.901Z,7.22
2023-03-16T14:08:37.324Z,8.60
2023-03-16T14:11:04.619Z,7.93
2023-03-16T14:13:36.243Z,9.65
2023-03-16T14:16:12.016Z,7.88
2023-03-16T14:18:46.198Z,8.60
2023-03-16T14:21:41.786Z,7.63
2023-03-16T14:24:21.241Z,10.07
2023-03-16T14:26:49.198Z,8.50
2023-03-16T14:29:30.609Z,7.70
2023-03-16T14:31:59.868Z,16.70
2023-03-16T14:34:40.849Z,11.18
2023-03-16T14:37:17.599Z,9.05
2023-03-16T14:39:44.706Z,8.40
2023-03-16T14:42:27.586Z,8.80
2023-03-16T14:44:54.839Z,10.57
2023-03-16T14:47:28.643Z,16.58
2023-03-16T14:49:57.542Z,13.73
2023-03-16T14:52:29.792Z,12.55
2023-03-16T14:54:57.096Z,11.07
2023-03-16T14:57:25.950Z,10.20
2023-03-16T14:59:53.960Z,8.05
2023-03-16T15:02:23.396Z,9.68
2023-03-16T15:04:50.929Z,8.95
2023-03-16T15:07:26.246Z,8.70
2023-03-16T15:09:55.602Z,9.60
2023-03-16T15:12:26.087Z,8.00
2023-03-16T15:15:12.072Z,8.73
2023-03-16T15:20:07.195Z,9.77
2023-03-16T15:22:37.859Z,8.73
2023-03-16T15:25:26.164Z,10.02
2023-03-16T15:27:54.356Z,10.88
2023-03-16T15:30:26.138Z,8.85
2023-03-16T15:32:53.545Z,10.82
2023-03-16T15:35:20.737Z,10.95
2023-03-16T15:37:48.642Z,11.10
2023-03-16T15:40:15.762Z,8.80
2023-03-16T15:42:44.107Z,10.27
2023-03-16T15:45:14.809Z,8.70
2023-03-16T15:47:42.338Z,12.77
2023-03-16T15:50:15.616Z,10.32
2023-03-16T15:52:49.418Z,8.70
2023-03-16T15:55:22.727Z,8.93
2023-03-16T15:57:57.134Z,11.40
2023-03-16T16:00:33.184Z,11.95
2023-03-16T16:03:00.932Z,8.57
2023-03-16T16:05:28.903Z,10.02
2023-03-16T16:07:58.283Z,14.43
2023-03-16T16:10:27.032Z,10.38
2023-03-16T16:12:55.799Z,9.52
2023-03-16T16:15:31.964Z,8.77
2023-03-16T16:18:20.251Z,9.20
2023-03-16T16:20:46.827Z,12.65
2023-03-16T16:23:13.950Z,9.30
2023-03-16T16:25:42.417Z,10.18
2023-03-16T16:28:23.460Z,10.77
2023-03-16T16:30:51.028Z,13.40
2023-03-16T16:33:36.199Z,11.70
2023-03-16T16:36:06.455Z,9.83
2023-03-16T16:38:33.780Z,9.18
2023-03-16T16:41:04.772Z,10.13
2023-03-16T16:43:41.566Z,12.57
2023-03-16T16:46:25.914Z,9.85
2023-03-16T16:49:06.978Z,12.75
2023-03-16T16:51:34.310Z,10.38
2023-03-16T16:54:02.104Z,11.00
2023-03-16T16:56:35.753Z,10.00
2023-03-16T16:59:24.789Z,10.98
2023-03-16T17:01:54.020Z,11.68
2023-03-16T17:04:25.277Z,9.68
2023-03-16T17:06:55.658Z,11.60
2023-03-16T17:09:24.144Z,9.98
2023-03-16T17:11:51.851Z,9.85
2023-03-16T17:14:21.317Z,11.25
2023-03-16T17:16:50.348Z,12.40
2023-03-16T17:19:23.248Z,10.73
2023-03-16T17:21:55.581Z,11.20
2023-03-16T17:24:23.010Z,14.38
2023-03-16T17:26:54.019Z,9.65
2023-03-16T17:29:34.156Z,10.13
2023-03-16T17:32:03.738Z,11.07
2023-03-16T17:34:32.931Z,12.68
2023-03-16T17:36:59.936Z,12.75
2023-03-16T17:39:29.443Z,11.38
2023-03-16T17:41:59.325Z,11.80
2023-03-16T17:44:31.219Z,10.77
2023-03-16T17:46:58.528Z,10.73
2023-03-16T17:49:28.522Z,10.57
2023-03-16T17:51:56.070Z,10.77
2023-03-16T17:54:23.122Z,9.30
2023-03-16T17:56:52.283Z,12.27
2023-03-16T17:59:21.780Z,9.70
2023-03-16T18:01:49.064Z,10.32
2023-03-16T18:04:18.507Z,9.50
2023-03-16T18:06:47.479Z,13.57
2023-03-16T18:09:16.048Z,11.52
2023-03-16T18:11:47.513Z,12.32
2023-03-16T18:14:35.487Z,15.20
2023-03-16T18:17:16.826Z,12.77
2023-03-16T18:19:45.634Z,11.05
2023-03-16T18:22:21.894Z,10.45
2023-03-16T18:24:50.005Z,12.70
2023-03-16T18:27:17.075Z,13.82
2023-03-16T18:29:45.718Z,13.70
2023-03-16T18:32:23.258Z,13.73
2023-03-16T18:34:52.431Z,13.57
2023-03-16T18:37:25.049Z,12.77
2023-03-16T18:39:53.227Z,14.63
2023-03-16T18:42:25.429Z,16.17
2023-03-16T18:44:52.480Z,13.98
2023-03-16T18:47:23.451Z,14.57
2023-03-16T18:49:53.600Z,15.88
2023-03-16T18:52:27.912Z,12.05
2023-03-16T18:54:55.718Z,12.40
2023-03-16T18:57:26.427Z,11.45
2023-03-16T18:59:53.472Z,11.27
2023-03-16T19:02:41.384Z,12.45
2023-03-16T19:05:16.782Z,14.93
2023-03-16T19:07:47.174Z,14.98
2023-03-16T19:10:30.104Z,11.65
2023-03-16T19:12:57.413Z,14.82
2023-03-16T19:15:27.583Z,12.73
2023-03-16T19:17:55.271Z,12.50
2023-03-16T19:20:27.988Z,13.07
2023-03-16T19:23:05.909Z,16.30
2023-03-16T19:25:37.870Z,14.57
2023-03-16T19:28:06.662Z,13.48
2023-03-16T19:30:35.704Z,13.52
2023-03-16T19:33:02.793Z,17.83
2023-03-16T19:35:48.480Z,15.50
2023-03-16T19:38:17.233Z,11.10
2023-03-16T19:40:44.854Z,10.25
2023-03-16T19:43:18.346Z,12.85
2023-03-16T19:45:46.859Z,14.30
2023-03-16T19:48:25.033Z,11.95
2023-03-16T19:50:52.092Z,14.82
2023-03-16T19:53:22.365Z,15.57
2023-03-16T19:55:52.092Z,15.70
2023-03-16T19:58:41.569Z,13.73
2023-03-16T20:01:32.559Z,17.35
2023-03-16T20:04:00.089Z,16.48
2023-03-16T20:06:29.096Z,12.55
2023-03-16T20:08:56.796Z,17.83
2023-03-16T20:11:29.197Z,15.27
2023-03-16T20:13:57.119Z,19.20
2023-03-16T20:16:33.544Z,14.85
2023-03-16T20:19:05.204Z,16.88
2023-03-16T20:21:32.597Z,14.40
2023-03-16T20:23:59.560Z,13.68
2023-03-16T20:26:31.653Z,16.50
2023-03-16T20:29:00.375Z,14.25
2023-03-16T20:31:31.326Z,11.65
2023-03-16T20:33:58.831Z,17.67
2023-03-16T20:36:26.450Z,15.10
2023-03-16T20:38:53.389Z,15.70
2023-03-16T20:41:20.397Z,16.17
2023-03-16T20:43:47.486Z,12.70
2023-03-16T20:46:22.274Z,13.55
2023-03-16T20:48:49.704Z,16.23
2023-03-16T20:51:17.085Z,12.40
2023-03-16T20:53:47.784Z,14.02
2023-03-16T20:56:20.699Z,13.07
2023-03-16T20:58:49.921Z,15.05
2023-03-16T21:01:20.941Z,13.93
2023-03-16T21:03:55.446Z,13.40
2023-03-16T21:06:28.439Z,13.63
2023-03-16T21:08:57.485Z,11.70
2023-03-16T21:11:45.501Z,11.15
2023-03-16T21:14:17.976Z,10.95
2023-03-16T21:16:46.584Z,13.95
2023-03-16T21:19:18.993Z,14.50
2023-03-16T21:21:46.474Z,19.45
2023-03-16T21:24:13.468Z,16.60
2023-03-16T21:26:42.856Z,11.60
2023-03-16T21:29:17.008Z,17.02
2023-03-16T21:31:44.485Z,13.45
2023-03-16T21:34:26.950Z,12.38
2023-03-16T21:36:54.223Z,12.55
2023-03-16T21:39:24.837Z,11.93
2023-03-16T21:41:51.925Z,11.93
2023-03-16T21:44:19.590Z,12.23
2023-03-16T21:46:47.430Z,10.30
2023-03-16T21:49:15.740Z,11.32
2023-03-16T21:51:43.274Z,13.23
2023-03-16T21:54:17.964Z,10.88
2023-03-16T21:56:45.514Z,11.43
2023-03-16T21:59:13.056Z,10.93
2023-03-16T22:01:50.896Z,9.98
2023-03-16T22:04:25.764Z,9.60
2023-03-16T22:06:52.682Z,11.10
2023-03-16T22:09:22.423Z,10.13
2023-03-16T22:11:49.746Z,12.25
2023-03-16T22:14:16.756Z,15.32
2023-03-16T22:16:43.836Z,11.32
2023-03-16T22:19:14.704Z,11.05
2023-03-16T22:21:43.840Z,9.93
2023-03-16T22:24:20.308Z,14.20
2023-03-16T22:26:48.964Z,13.93
2023-03-16T22:29:25.466Z,12.85
2023-03-16T22:31:57.099Z,13.43
2023-03-16T22:34:39.252Z,10.43
2023-03-16T22:37:06.654Z,15.43
2023-03-16T22:39:38.274Z,11.25
2023-03-16T22:42:38.691Z,11.70
2023-03-16T22:45:23.026Z,10.52
2023-03-16T22:47:50.290Z,11.45
2023-03-16T22:50:19.189Z,15.40
2023-03-16T22:52:49.591Z,11.52
2023-03-16T22:55:21.272Z,11.57
2023-03-16T22:57:51.436Z,13.88
2023-03-16T23:00:21.375Z,12.68
2023-03-16T23:02:50.203Z,12.75
2023-03-16T23:05:22.865Z,13.95
2023-03-16T23:07:50.000Z,12.57
2023-03-16T23:10:19.202Z,13.18
2023-03-16T23:12:46.285Z,16.13
2023-03-16T23:15:32.584Z,11.45
2023-03-16T23:17:59.690Z,11.93
2023-03-16T23:20:29.428Z,11.25
2023-03-16T23:22:56.581Z,13.05
2023-03-16T23:25:23.911Z,13.00
2023-03-16T23:27:52.455Z,12.95
2023-03-16T23:30:24.901Z,15.45
2023-03-16T23:32:53.912Z,14.48
2023-03-16T23:35:22.802Z,13.10
2023-03-16T23:37:51.074Z,12.48
2023-03-16T23:40:19.494Z,11.68
2023-03-16T23:42:47.504Z,11.50
2023-03-16T23:45:46.588Z,10.60
2023-03-16T23:48:19.359Z,11.23
2023-03-16T23:50:49.585Z,12.02
2023-03-16T23:53:18.321Z,12.50
2023-03-16T23:55:46.729Z,12.40
2023-03-16T23:58:14.414Z,9.75
